sensor_id;sensor_type;location;lat;lon;timestamp;temperature;humidity
78448;SHT31;67742;51.972;5.682;2023-03-31T00:01:03;13.9;65.1
78448;SHT31;67742;51.972;5.682;2023-03-31T00:03:33;13.9;65.1
78448;SHT31;67742;51.972;5.682;2023-03-31T00:06:05;13.9;65.0
78448;SHT31;67742;51.972;5.682;2023-03-31T00:08:35;13.9;65.2
78448;SHT31;67742;51.972;5.682;2023-03-31T00:11:07;13.9;65.6
78448;SHT31;67742;51.972;5.682;2023-03-31T00:13:38;13.9;65.3
78448;SHT31;67742;51.972;5.682;2023-03-31T00:16:09;13.9;65.9
78448;SHT31;67742;51.972;5.682;2023-03-31T00:18:39;13.9;65.6
78448;SHT31;67742;51.972;5.682;2023-03-31T00:21:16;13.9;65.9
78448;SHT31;67742;51.972;5.682;2023-03-31T00:23:58;13.9;65.9
78448;SHT31;67742;51.972;5.682;2023-03-31T00:26:29;13.9;66.2
78448;SHT31;67742;51.972;5.682;2023-03-31T00:29:00;13.9;66.3
78448;SHT31;67742;51.972;5.682;2023-03-31T00:31:31;13.9;66.0
78448;SHT31;67742;51.972;5.682;2023-03-31T00:34:01;13.9;65.8
78448;SHT31;67742;51.972;5.682;2023-03-31T00:36:31;13.9;65.9
78448;SHT31;67742;51.972;5.682;2023-03-31T00:39:05;13.9;66.1
78448;SHT31;67742;51.972;5.682;2023-03-31T00:41:37;13.9;66.5
78448;SHT31;67742;51.972;5.682;2023-03-31T00:44:11;13.9;66.1
78448;SHT31;67742;51.972;5.682;2023-03-31T00:46:45;13.9;66.7
78448;SHT31;67742;51.972;5.682;2023-03-31T00:49:24;13.9;66.7
78448;SHT31;67742;51.972;5.682;2023-03-31T00:52:00;13.9;66.8
78448;SHT31;67742;51.972;5.682;2023-03-31T00:54:33;13.9;67.2
78448;SHT31;67742;51.972;5.682;2023-03-31T00:57:07;13.9;67.8
78448;SHT31;67742;51.972;5.682;2023-03-31T00:59:41;13.9;67.5
78448;SHT31;67742;51.972;5.682;2023-03-31T01:02:13;13.9;68.1
78448;SHT31;67742;51.972;5.682;2023-03-31T01:04:47;13.9;69.2
78448;SHT31;67742;51.972;5.682;2023-03-31T01:07:24;13.9;69.2
78448;SHT31;67742;51.972;5.682;2023-03-31T01:10:00;13.9;69.1
78448;SHT31;67742;51.972;5.682;2023-03-31T01:12:33;13.8;69.1
78448;SHT31;67742;51.972;5.682;2023-03-31T01:15:07;13.8;69.2
78448;SHT31;67742;51.972;5.682;2023-03-31T01:17:38;13.8;69.2
78448;SHT31;67742;51.972;5.682;2023-03-31T01:20:20;13.8;68.8
78448;SHT31;67742;51.972;5.682;2023-03-31T01:23:20;13.8;68.8
78448;SHT31;67742;51.972;5.682;2023-03-31T01:27:22;13.9;68.8
78448;SHT31;67742;51.972;5.682;2023-03-31T01:30:24;13.9;68.7
78448;SHT31;67742;51.972;5.682;2023-03-31T01:33:28;13.9;69.0
78448;SHT31;67742;51.972;5.682;2023-03-31T01:36:32;13.9;68.8
78448;SHT31;67742;51.972;5.682;2023-03-31T01:40:19;13.9;68.4
78448;SHT31;67742;51.972;5.682;2023-03-31T01:43:00;13.9;68.8
78448;SHT31;67742;51.972;5.682;2023-03-31T01:45:40;13.9;68.5
78448;SHT31;67742;51.972;5.682;2023-03-31T01:48:14;13.9;68.3
78448;SHT31;67742;51.972;5.682;2023-03-31T01:50:50;13.9;68.4
78448;SHT31;67742;51.972;5.682;2023-03-31T01:53:30;13.9;68.3
78448;SHT31;67742;51.972;5.682;2023-03-31T01:56:07;13.9;68.5
78448;SHT31;67742;51.972;5.682;2023-03-31T01:58:42;13.9;68.4
78448;SHT31;67742;51.972;5.682;2023-03-31T02:01:18;13.9;68.6
78448;SHT31;67742;51.972;5.682;2023-03-31T02:03:54;13.9;68.4
78448;SHT31;67742;51.972;5.682;2023-03-31T02:06:29;13.9;68.6
78448;SHT31;67742;51.972;5.682;2023-03-31T02:09:07;13.9;68.7
78448;SHT31;67742;51.972;5.682;2023-03-31T02:11:41;13.9;68.3
78448;SHT31;67742;51.972;5.682;2023-03-31T02:14:17;13.9;68.6
78448;SHT31;67742;51.972;5.682;2023-03-31T02:16:52;13.9;68.2
78448;SHT31;67742;51.972;5.682;2023-03-31T02:19:30;13.9;68.5
78448;SHT31;67742;51.972;5.682;2023-03-31T02:22:02;13.9;68.6
78448;SHT31;67742;51.972;5.682;2023-03-31T02:24:35;13.9;68.4
78448;SHT31;67742;51.972;5.682;2023-03-31T02:27:11;13.9;68.6
78448;SHT31;67742;51.972;5.682;2023-03-31T02:29:44;13.9;68.6
78448;SHT31;67742;51.972;5.682;2023-03-31T02:32:22;13.9;68.3
78448;SHT31;67742;51.972;5.682;2023-03-31T02:34:53;13.9;68.6
78448;SHT31;67742;51.972;5.682;2023-03-31T02:37:24;13.9;68.8
78448;SHT31;67742;51.972;5.682;2023-03-31T02:39:56;13.9;69.0
78448;SHT31;67742;51.972;5.682;2023-03-31T02:42:27;13.9;69.2
78448;SHT31;67742;51.972;5.682;2023-03-31T02:45:37;13.9;69.2
78448;SHT31;67742;51.972;5.682;2023-03-31T02:47:37;13.9;68.9
78448;SHT31;67742;51.972;5.682;2023-03-31T02:50:08;13.9;69.1
78448;SHT31;67742;51.972;5.682;2023-03-31T02:52:53;13.9;69.8
78448;SHT31;67742;51.972;5.682;2023-03-31T02:55:38;13.9;69.8
78448;SHT31;67742;51.972;5.682;2023-03-31T02:58:26;13.9;69.8
78448;SHT31;67742;51.972;5.682;2023-03-31T03:01:07;13.9;69.7
78448;SHT31;67742;51.972;5.682;2023-03-31T03:03:48;13.8;69.4
78448;SHT31;67742;51.972;5.682;2023-03-31T03:06:33;13.8;69.6
78448;SHT31;67742;51.972;5.682;2023-03-31T03:09:18;13.8;69.6
78448;SHT31;67742;51.972;5.682;2023-03-31T03:12:01;13.8;69.7
78448;SHT31;67742;51.972;5.682;2023-03-31T03:14:43;13.8;69.1
78448;SHT31;67742;51.972;5.682;2023-03-31T03:17:20;13.8;69.5
78448;SHT31;67742;51.972;5.682;2023-03-31T03:19:56;13.8;69.6
78448;SHT31;67742;51.972;5.682;2023-03-31T03:22:27;13.8;69.4
78448;SHT31;67742;51.972;5.682;2023-03-31T03:24:57;13.8;69.1
78448;SHT31;67742;51.972;5.682;2023-03-31T03:27:26;13.8;68.8
78448;SHT31;67742;51.972;5.682;2023-03-31T03:29:58;13.8;69.0
78448;SHT31;67742;51.972;5.682;2023-03-31T03:32:29;13.8;68.8
78448;SHT31;67742;51.972;5.682;2023-03-31T03:35:00;13.8;68.9
78448;SHT31;67742;51.972;5.682;2023-03-31T03:37:31;13.8;68.7
78448;SHT31;67742;51.972;5.682;2023-03-31T03:40:01;13.8;68.7
78448;SHT31;67742;51.972;5.682;2023-03-31T03:42:33;13.9;68.8
78448;SHT31;67742;51.972;5.682;2023-03-31T03:45:06;13.9;68.6
78448;SHT31;67742;51.972;5.682;2023-03-31T03:47:35;13.9;68.9
78448;SHT31;67742;51.972;5.682;2023-03-31T03:50:06;13.9;68.7
78448;SHT31;67742;51.972;5.682;2023-03-31T03:52:36;13.9;69.1
78448;SHT31;67742;51.972;5.682;2023-03-31T03:55:09;13.9;68.6
78448;SHT31;67742;51.972;5.682;2023-03-31T03:57:40;13.9;68.4
78448;SHT31;67742;51.972;5.682;2023-03-31T04:00:11;13.9;68.4
78448;SHT31;67742;51.972;5.682;2023-03-31T04:02:40;13.9;68.6
78448;SHT31;67742;51.972;5.682;2023-03-31T04:05:10;13.9;68.6
78448;SHT31;67742;51.972;5.682;2023-03-31T04:07:40;14.0;68.7
78448;SHT31;67742;51.972;5.682;2023-03-31T04:10:10;14.0;69.0
78448;SHT31;67742;51.972;5.682;2023-03-31T04:12:40;14.0;68.2
78448;SHT31;67742;51.972;5.682;2023-03-31T04:15:10;14.0;68.7
78448;SHT31;67742;51.972;5.682;2023-03-31T04:17:40;14.0;69.3
78448;SHT31;67742;51.972;5.682;2023-03-31T04:20:14;14.0;68.7
78448;SHT31;67742;51.972;5.682;2023-03-31T04:22:44;14.0;68.5
78448;SHT31;67742;51.972;5.682;2023-03-31T04:25:17;14.0;68.3
78448;SHT31;67742;51.972;5.682;2023-03-31T04:27:50;14.0;68.7
78448;SHT31;67742;51.972;5.682;2023-03-31T04:30:25;14.0;69.3
78448;SHT31;67742;51.972;5.682;2023-03-31T04:32:59;14.0;68.8
78448;SHT31;67742;51.972;5.682;2023-03-31T04:35:30;14.0;68.8
78448;SHT31;67742;51.972;5.682;2023-03-31T04:38:05;14.0;69.0
78448;SHT31;67742;51.972;5.682;2023-03-31T04:40:35;14.0;69.0
78448;SHT31;67742;51.972;5.682;2023-03-31T04:43:06;13.9;69.2
78448;SHT31;67742;51.972;5.682;2023-03-31T04:45:36;13.9;69.2
78448;SHT31;67742;51.972;5.682;2023-03-31T04:48:06;13.9;69.2
78448;SHT31;67742;51.972;5.682;2023-03-31T04:50:37;13.9;69.5
78448;SHT31;67742;51.972;5.682;2023-03-31T04:53:07;13.9;69.5
78448;SHT31;67742;51.972;5.682;2023-03-31T04:55:37;13.9;69.9
78448;SHT31;67742;51.972;5.682;2023-03-31T04:58:08;13.9;69.8
78448;SHT31;67742;51.972;5.682;2023-03-31T05:00:37;13.8;70.1
78448;SHT31;67742;51.972;5.682;2023-03-31T05:03:07;13.8;69.7
78448;SHT31;67742;51.972;5.682;2023-03-31T05:05:36;13.8;70.1
78448;SHT31;67742;51.972;5.682;2023-03-31T05:08:08;13.8;69.8
78448;SHT31;67742;51.972;5.682;2023-03-31T05:10:39;13.8;70.1
78448;SHT31;67742;51.972;5.682;2023-03-31T05:13:10;13.8;70.5
78448;SHT31;67742;51.972;5.682;2023-03-31T05:15:40;13.7;70.3
78448;SHT31;67742;51.972;5.682;2023-03-31T05:18:11;13.7;70.3
78448;SHT31;67742;51.972;5.682;2023-03-31T05:20:41;13.7;70.1
78448;SHT31;67742;51.972;5.682;2023-03-31T05:23:10;13.7;70.2
78448;SHT31;67742;51.972;5.682;2023-03-31T05:25:40;13.7;70.4
78448;SHT31;67742;51.972;5.682;2023-03-31T05:28:09;13.7;70.3
78448;SHT31;67742;51.972;5.682;2023-03-31T05:30:39;13.7;70.2
78448;SHT31;67742;51.972;5.682;2023-03-31T05:33:08;13.7;70.0
78448;SHT31;67742;51.972;5.682;2023-03-31T05:35:38;13.7;70.0
78448;SHT31;67742;51.972;5.682;2023-03-31T05:38:07;13.7;69.9
78448;SHT31;67742;51.972;5.682;2023-03-31T05:40:37;13.7;69.9
78448;SHT31;67742;51.972;5.682;2023-03-31T05:43:06;13.7;69.7
78448;SHT31;67742;51.972;5.682;2023-03-31T05:45:36;13.7;69.9
78448;SHT31;67742;51.972;5.682;2023-03-31T05:48:06;13.7;69.7
78448;SHT31;67742;51.972;5.682;2023-03-31T05:50:35;13.7;70.0
78448;SHT31;67742;51.972;5.682;2023-03-31T05:53:05;13.7;69.9
78448;SHT31;67742;51.972;5.682;2023-03-31T05:55:37;13.7;69.7
78448;SHT31;67742;51.972;5.682;2023-03-31T05:58:07;13.7;70.0
78448;SHT31;67742;51.972;5.682;2023-03-31T06:00:36;13.7;69.7
78448;SHT31;67742;51.972;5.682;2023-03-31T06:03:06;13.7;70.0
78448;SHT31;67742;51.972;5.682;2023-03-31T06:05:36;13.7;70.1
78448;SHT31;67742;51.972;5.682;2023-03-31T06:08:06;13.6;70.2
78448;SHT31;67742;51.972;5.682;2023-03-31T06:10:37;13.6;70.2
78448;SHT31;67742;51.972;5.682;2023-03-31T06:13:09;13.6;69.9
78448;SHT31;67742;51.972;5.682;2023-03-31T06:15:38;13.6;69.8
78448;SHT31;67742;51.972;5.682;2023-03-31T06:18:09;13.6;69.9
78448;SHT31;67742;51.972;5.682;2023-03-31T06:20:40;13.6;69.9
78448;SHT31;67742;51.972;5.682;2023-03-31T06:23:09;13.6;70.2
78448;SHT31;67742;51.972;5.682;2023-03-31T06:25:39;13.6;70.2
78448;SHT31;67742;51.972;5.682;2023-03-31T06:28:09;13.6;70.3
78448;SHT31;67742;51.972;5.682;2023-03-31T06:30:38;13.5;70.3
78448;SHT31;67742;51.972;5.682;2023-03-31T06:33:08;13.5;70.4
78448;SHT31;67742;51.972;5.682;2023-03-31T06:35:40;13.5;70.6
78448;SHT31;67742;51.972;5.682;2023-03-31T06:38:09;13.5;70.5
78448;SHT31;67742;51.972;5.682;2023-03-31T06:40:40;13.5;70.7
78448;SHT31;67742;51.972;5.682;2023-03-31T06:43:11;13.5;70.5
78448;SHT31;67742;51.972;5.682;2023-03-31T06:45:42;13.6;70.3
78448;SHT31;67742;51.972;5.682;2023-03-31T06:48:11;13.6;70.2
78448;SHT31;67742;51.972;5.682;2023-03-31T06:50:41;13.6;69.8
78448;SHT31;67742;51.972;5.682;2023-03-31T06:53:10;13.6;70.0
78448;SHT31;67742;51.972;5.682;2023-03-31T06:55:40;13.6;70.1
78448;SHT31;67742;51.972;5.682;2023-03-31T06:58:12;13.5;70.2
78448;SHT31;67742;51.972;5.682;2023-03-31T07:00:42;13.5;70.2
78448;SHT31;67742;51.972;5.682;2023-03-31T07:03:13;13.5;70.5
78448;SHT31;67742;51.972;5.682;2023-03-31T07:05:49;13.5;70.4
78448;SHT31;67742;51.972;5.682;2023-03-31T07:08:20;13.6;70.4
78448;SHT31;67742;51.972;5.682;2023-03-31T07:10:55;13.6;70.7
78448;SHT31;67742;51.972;5.682;2023-03-31T07:13:27;13.6;70.7
78448;SHT31;67742;51.972;5.682;2023-03-31T07:15:57;13.6;70.5
78448;SHT31;67742;51.972;5.682;2023-03-31T07:18:27;13.6;70.3
78448;SHT31;67742;51.972;5.682;2023-03-31T07:20:58;13.6;70.6
78448;SHT31;67742;51.972;5.682;2023-03-31T07:23:28;13.6;70.7
78448;SHT31;67742;51.972;5.682;2023-03-31T07:25:57;13.6;70.7
78448;SHT31;67742;51.972;5.682;2023-03-31T07:28:29;13.6;70.6
78448;SHT31;67742;51.972;5.682;2023-03-31T07:31:00;13.6;70.5
78448;SHT31;67742;51.972;5.682;2023-03-31T07:33:30;13.6;70.1
78448;SHT31;67742;51.972;5.682;2023-03-31T07:36:02;13.6;70.5
78448;SHT31;67742;51.972;5.682;2023-03-31T07:38:32;13.7;70.5
78448;SHT31;67742;51.972;5.682;2023-03-31T07:41:02;13.7;70.1
78448;SHT31;67742;51.972;5.682;2023-03-31T07:43:32;13.7;70.2
78448;SHT31;67742;51.972;5.682;2023-03-31T07:46:01;13.8;69.9
78448;SHT31;67742;51.972;5.682;2023-03-31T07:48:31;13.8;70.1
78448;SHT31;67742;51.972;5.682;2023-03-31T07:51:01;13.8;70.0
78448;SHT31;67742;51.972;5.682;2023-03-31T07:53:31;13.8;69.5
78448;SHT31;67742;51.972;5.682;2023-03-31T07:56:00;13.9;69.9
78448;SHT31;67742;51.972;5.682;2023-03-31T07:58:29;13.9;69.8
78448;SHT31;67742;51.972;5.682;2023-03-31T08:00:59;13.9;69.6
78448;SHT31;67742;51.972;5.682;2023-03-31T08:03:29;13.9;69.9
78448;SHT31;67742;51.972;5.682;2023-03-31T08:06:00;14.0;69.8
78448;SHT31;67742;51.972;5.682;2023-03-31T08:08:31;14.0;69.4
78448;SHT31;67742;51.972;5.682;2023-03-31T08:11:00;14.0;69.4
78448;SHT31;67742;51.972;5.682;2023-03-31T08:13:30;14.1;69.2
78448;SHT31;67742;51.972;5.682;2023-03-31T08:16:01;14.1;69.3
78448;SHT31;67742;51.972;5.682;2023-03-31T08:18:31;14.1;70.2
78448;SHT31;67742;51.972;5.682;2023-03-31T08:21:00;14.1;70.6
78448;SHT31;67742;51.972;5.682;2023-03-31T08:23:29;14.1;70.6
78448;SHT31;67742;51.972;5.682;2023-03-31T08:26:08;14.1;70.8
78448;SHT31;67742;51.972;5.682;2023-03-31T08:28:39;14.2;71.6
78448;SHT31;67742;51.972;5.682;2023-03-31T08:31:11;14.2;71.2
78448;SHT31;67742;51.972;5.682;2023-03-31T08:33:42;14.2;71.4
78448;SHT31;67742;51.972;5.682;2023-03-31T08:36:13;14.2;71.1
78448;SHT31;67742;51.972;5.682;2023-03-31T08:38:43;14.2;71.3
78448;SHT31;67742;51.972;5.682;2023-03-31T08:41:38;14.2;71.5
78448;SHT31;67742;51.972;5.682;2023-03-31T08:44:16;14.2;71.4
78448;SHT31;67742;51.972;5.682;2023-03-31T08:46:52;14.2;72.1
78448;SHT31;67742;51.972;5.682;2023-03-31T08:49:25;14.2;72.6
78448;SHT31;67742;51.972;5.682;2023-03-31T08:52:00;14.2;72.8
78448;SHT31;67742;51.972;5.682;2023-03-31T08:54:38;14.2;72.7
78448;SHT31;67742;51.972;5.682;2023-03-31T08:57:16;14.2;73.5
78448;SHT31;67742;51.972;5.682;2023-03-31T08:59:48;14.2;73.3
78448;SHT31;67742;51.972;5.682;2023-03-31T09:02:29;14.3;73.5
78448;SHT31;67742;51.972;5.682;2023-03-31T09:05:20;14.3;73.6
78448;SHT31;67742;51.972;5.682;2023-03-31T09:07:59;14.3;73.1
78448;SHT31;67742;51.972;5.682;2023-03-31T09:10:40;14.3;73.0
78448;SHT31;67742;51.972;5.682;2023-03-31T09:13:32;14.4;72.6
78448;SHT31;67742;51.972;5.682;2023-03-31T09:16:13;14.4;72.3
78448;SHT31;67742;51.972;5.682;2023-03-31T09:18:44;14.4;72.3
78448;SHT31;67742;51.972;5.682;2023-03-31T09:21:20;14.4;72.8
78448;SHT31;67742;51.972;5.682;2023-03-31T09:23:55;14.4;72.7
78448;SHT31;67742;51.972;5.682;2023-03-31T09:26:36;14.5;72.2
78448;SHT31;67742;51.972;5.682;2023-03-31T09:29:14;14.5;72.3
78448;SHT31;67742;51.972;5.682;2023-03-31T09:31:46;14.5;72.3
78448;SHT31;67742;51.972;5.682;2023-03-31T09:34:24;14.5;72.6
78448;SHT31;67742;51.972;5.682;2023-03-31T09:36:55;14.6;71.8
78448;SHT31;67742;51.972;5.682;2023-03-31T09:39:27;14.6;72.0
78448;SHT31;67742;51.972;5.682;2023-03-31T09:41:57;14.6;71.8
78448;SHT31;67742;51.972;5.682;2023-03-31T09:44:35;14.6;71.7
78448;SHT31;67742;51.972;5.682;2023-03-31T09:47:12;14.6;71.6
78448;SHT31;67742;51.972;5.682;2023-03-31T09:49:45;14.7;70.9
78448;SHT31;67742;51.972;5.682;2023-03-31T09:52:25;14.7;71.5
78448;SHT31;67742;51.972;5.682;2023-03-31T09:54:59;14.7;70.8
78448;SHT31;67742;51.972;5.682;2023-03-31T09:57:31;14.7;70.0
78448;SHT31;67742;51.972;5.682;2023-03-31T10:00:12;14.8;70.4
78448;SHT31;67742;51.972;5.682;2023-03-31T10:02:48;14.8;69.7
78448;SHT31;67742;51.972;5.682;2023-03-31T10:05:23;14.8;69.5
78448;SHT31;67742;51.972;5.682;2023-03-31T10:08:21;14.8;69.3
78448;SHT31;67742;51.972;5.682;2023-03-31T10:10:53;14.9;68.3
78448;SHT31;67742;51.972;5.682;2023-03-31T10:13:25;14.9;68.3
78448;SHT31;67742;51.972;5.682;2023-03-31T10:16:03;14.9;68.4
78448;SHT31;67742;51.972;5.682;2023-03-31T10:18:37;14.9;68.7
78448;SHT31;67742;51.972;5.682;2023-03-31T10:21:20;14.9;68.5
78448;SHT31;67742;51.972;5.682;2023-03-31T10:23:51;14.9;68.8
78448;SHT31;67742;51.972;5.682;2023-03-31T10:26:25;14.9;68.7
78448;SHT31;67742;51.972;5.682;2023-03-31T10:28:55;14.9;68.1
78448;SHT31;67742;51.972;5.682;2023-03-31T10:31:35;14.9;68.1
78448;SHT31;67742;51.972;5.682;2023-03-31T10:34:08;15.0;67.5
78448;SHT31;67742;51.972;5.682;2023-03-31T10:36:47;15.0;67.5
78448;SHT31;67742;51.972;5.682;2023-03-31T10:39:19;15.0;67.7
78448;SHT31;67742;51.972;5.682;2023-03-31T10:41:52;15.1;67.2
78448;SHT31;67742;51.972;5.682;2023-03-31T10:44:40;15.1;67.5
78448;SHT31;67742;51.972;5.682;2023-03-31T10:47:18;15.1;67.4
78448;SHT31;67742;51.972;5.682;2023-03-31T10:49:56;15.2;67.6
78448;SHT31;67742;51.972;5.682;2023-03-31T10:52:26;15.2;68.1
78448;SHT31;67742;51.972;5.682;2023-03-31T10:54:58;15.3;67.3
78448;SHT31;67742;51.972;5.682;2023-03-31T10:57:39;15.3;66.5
78448;SHT31;67742;51.972;5.682;2023-03-31T11:00:18;15.4;66.4
78448;SHT31;67742;51.972;5.682;2023-03-31T11:03:45;15.4;65.7
78448;SHT31;67742;51.972;5.682;2023-03-31T11:06:25;15.5;65.4
78448;SHT31;67742;51.972;5.682;2023-03-31T11:09:09;15.5;64.9
78448;SHT31;67742;51.972;5.682;2023-03-31T11:11:54;15.6;64.7
78448;SHT31;67742;51.972;5.682;2023-03-31T11:14:39;15.6;64.3
78448;SHT31;67742;51.972;5.682;2023-03-31T11:17:22;15.6;64.0
78448;SHT31;67742;51.972;5.682;2023-03-31T11:20:07;15.6;64.9
78448;SHT31;67742;51.972;5.682;2023-03-31T11:22:47;15.6;65.3
78448;SHT31;67742;51.972;5.682;2023-03-31T11:25:26;15.6;64.7
78448;SHT31;67742;51.972;5.682;2023-03-31T11:28:27;15.6;64.9
78448;SHT31;67742;51.972;5.682;2023-03-31T11:31:16;15.6;64.2
78448;SHT31;67742;51.972;5.682;2023-03-31T11:34:11;15.6;64.0
78448;SHT31;67742;51.972;5.682;2023-03-31T11:37:17;15.6;64.5
78448;SHT31;67742;51.972;5.682;2023-03-31T11:40:02;15.7;64.3
78448;SHT31;67742;51.972;5.682;2023-03-31T11:42:41;15.7;63.7
78448;SHT31;67742;51.972;5.682;2023-03-31T11:45:17;15.7;64.1
78448;SHT31;67742;51.972;5.682;2023-03-31T11:47:52;15.7;64.1
78448;SHT31;67742;51.972;5.682;2023-03-31T11:50:26;15.7;63.0
78448;SHT31;67742;51.972;5.682;2023-03-31T11:53:02;15.7;63.2
78448;SHT31;67742;51.972;5.682;2023-03-31T11:55:36;15.7;63.0
78448;SHT31;67742;51.972;5.682;2023-03-31T11:58:11;15.7;63.6
78448;SHT31;67742;51.972;5.682;2023-03-31T12:00:48;15.7;63.6
78448;SHT31;67742;51.972;5.682;2023-03-31T12:03:27;15.7;63.4
78448;SHT31;67742;51.972;5.682;2023-03-31T12:06:02;15.6;63.3
78448;SHT31;67742;51.972;5.682;2023-03-31T12:08:40;15.6;63.8
78448;SHT31;67742;51.972;5.682;2023-03-31T12:11:18;15.6;63.0
78448;SHT31;67742;51.972;5.682;2023-03-31T12:13:59;15.6;63.2
78448;SHT31;67742;51.972;5.682;2023-03-31T12:16:39;15.6;63.3
78448;SHT31;67742;51.972;5.682;2023-03-31T12:19:14;15.6;62.3
78448;SHT31;67742;51.972;5.682;2023-03-31T12:21:52;15.6;62.6
78448;SHT31;67742;51.972;5.682;2023-03-31T12:24:22;15.6;62.4
78448;SHT31;67742;51.972;5.682;2023-03-31T12:27:00;15.6;62.5
78448;SHT31;67742;51.972;5.682;2023-03-31T12:29:35;15.6;62.7
78448;SHT31;67742;51.972;5.682;2023-03-31T12:32:11;15.6;63.0
78448;SHT31;67742;51.972;5.682;2023-03-31T12:34:46;15.6;63.6
78448;SHT31;67742;51.972;5.682;2023-03-31T12:39:37;15.6;62.9
78448;SHT31;67742;51.972;5.682;2023-03-31T12:42:43;15.5;63.9
78448;SHT31;67742;51.972;5.682;2023-03-31T12:45:27;15.5;63.8
78448;SHT31;67742;51.972;5.682;2023-03-31T12:48:23;15.5;63.9
78448;SHT31;67742;51.972;5.682;2023-03-31T12:51:13;15.4;64.6
78448;SHT31;67742;51.972;5.682;2023-03-31T12:53:58;15.4;64.9
78448;SHT31;67742;51.972;5.682;2023-03-31T12:59:31;15.3;65.8
78448;SHT31;67742;51.972;5.682;2023-03-31T13:02:21;15.3;66.4
78448;SHT31;67742;51.972;5.682;2023-03-31T13:04:52;15.2;66.0
78448;SHT31;67742;51.972;5.682;2023-03-31T13:07:39;15.2;66.6
78448;SHT31;67742;51.972;5.682;2023-03-31T13:12:25;15.2;67.3
78448;SHT31;67742;51.972;5.682;2023-03-31T13:15:03;15.3;66.4
78448;SHT31;67742;51.972;5.682;2023-03-31T13:17:35;15.3;66.8
78448;SHT31;67742;51.972;5.682;2023-03-31T13:20:31;15.4;66.2
78448;SHT31;67742;51.972;5.682;2023-03-31T13:23:18;15.4;65.9
78448;SHT31;67742;51.972;5.682;2023-03-31T13:25:51;15.5;66.4
78448;SHT31;67742;51.972;5.682;2023-03-31T13:28:40;15.5;64.2
78448;SHT31;67742;51.972;5.682;2023-03-31T13:31:12;15.6;64.5
78448;SHT31;67742;51.972;5.682;2023-03-31T13:33:49;15.6;64.0
78448;SHT31;67742;51.972;5.682;2023-03-31T13:37:13;15.6;64.0
78448;SHT31;67742;51.972;5.682;2023-03-31T13:40:03;15.6;64.0
78448;SHT31;67742;51.972;5.682;2023-03-31T13:43:11;15.6;63.2
78448;SHT31;67742;51.972;5.682;2023-03-31T13:45:53;15.6;64.0
78448;SHT31;67742;51.972;5.682;2023-03-31T13:48:29;15.6;63.0
78448;SHT31;67742;51.972;5.682;2023-03-31T13:51:22;15.6;63.1
78448;SHT31;67742;51.972;5.682;2023-03-31T13:55:54;15.6;64.0
78448;SHT31;67742;51.972;5.682;2023-03-31T13:58:52;15.5;65.0
78448;SHT31;67742;51.972;5.682;2023-03-31T14:01:36;15.5;65.2
78448;SHT31;67742;51.972;5.682;2023-03-31T14:04:27;15.5;65.1
78448;SHT31;67742;51.972;5.682;2023-03-31T14:07:07;15.5;64.8
78448;SHT31;67742;51.972;5.682;2023-03-31T14:09:41;15.5;65.2
78448;SHT31;67742;51.972;5.682;2023-03-31T14:12:32;15.4;65.2
78448;SHT31;67742;51.972;5.682;2023-03-31T14:15:04;15.4;66.1
78448;SHT31;67742;51.972;5.682;2023-03-31T14:17:36;15.3;66.7
78448;SHT31;67742;51.972;5.682;2023-03-31T14:20:32;15.3;67.1
78448;SHT31;67742;51.972;5.682;2023-03-31T14:23:11;15.3;67.3
78448;SHT31;67742;51.972;5.682;2023-03-31T14:25:49;15.2;67.6
78448;SHT31;67742;51.972;5.682;2023-03-31T14:28:34;15.2;67.3
78448;SHT31;67742;51.972;5.682;2023-03-31T14:31:14;15.2;67.6
78448;SHT31;67742;51.972;5.682;2023-03-31T14:34:04;15.2;67.5
78448;SHT31;67742;51.972;5.682;2023-03-31T14:36:46;15.2;67.6
78448;SHT31;67742;51.972;5.682;2023-03-31T14:39:21;15.2;67.1
78448;SHT31;67742;51.972;5.682;2023-03-31T14:41:54;15.2;67.3
78448;SHT31;67742;51.972;5.682;2023-03-31T14:44:25;15.2;66.9
78448;SHT31;67742;51.972;5.682;2023-03-31T14:46:59;15.2;66.8
78448;SHT31;67742;51.972;5.682;2023-03-31T14:49:36;15.2;67.0
78448;SHT31;67742;51.972;5.682;2023-03-31T14:52:12;15.2;66.7
78448;SHT31;67742;51.972;5.682;2023-03-31T14:54:45;15.2;66.7
78448;SHT31;67742;51.972;5.682;2023-03-31T14:57:18;15.2;66.4
78448;SHT31;67742;51.972;5.682;2023-03-31T14:59:51;15.2;66.2
78448;SHT31;67742;51.972;5.682;2023-03-31T15:02:31;15.2;66.2
78448;SHT31;67742;51.972;5.682;2023-03-31T15:05:04;15.1;66.2
78448;SHT31;67742;51.972;5.682;2023-03-31T15:07:36;15.1;66.2
78448;SHT31;67742;51.972;5.682;2023-03-31T15:10:17;15.1;65.7
78448;SHT31;67742;51.972;5.682;2023-03-31T15:12:49;15.1;65.8
78448;SHT31;67742;51.972;5.682;2023-03-31T15:15:23;15.0;66.1
78448;SHT31;67742;51.972;5.682;2023-03-31T15:17:53;15.0;66.2
78448;SHT31;67742;51.972;5.682;2023-03-31T15:20:30;14.9;66.4
78448;SHT31;67742;51.972;5.682;2023-03-31T15:23:17;14.9;66.9
78448;SHT31;67742;51.972;5.682;2023-03-31T15:25:42;14.9;67.4
78448;SHT31;67742;51.972;5.682;2023-03-31T15:28:16;14.9;67.6
78448;SHT31;67742;51.972;5.682;2023-03-31T15:30:48;14.9;67.5
78448;SHT31;67742;51.972;5.682;2023-03-31T15:33:23;14.9;68.0
78448;SHT31;67742;51.972;5.682;2023-03-31T15:35:56;14.8;67.9
78448;SHT31;67742;51.972;5.682;2023-03-31T15:38:30;14.8;67.8
78448;SHT31;67742;51.972;5.682;2023-03-31T15:41:02;14.8;68.2
78448;SHT31;67742;51.972;5.682;2023-03-31T15:43:43;14.8;67.7
78448;SHT31;67742;51.972;5.682;2023-03-31T15:46:19;14.8;67.8
78448;SHT31;67742;51.972;5.682;2023-03-31T15:48:54;14.8;67.9
78448;SHT31;67742;51.972;5.682;2023-03-31T15:51:30;14.8;67.7
78448;SHT31;67742;51.972;5.682;2023-03-31T15:54:01;14.8;67.6
78448;SHT31;67742;51.972;5.682;2023-03-31T15:56:36;14.8;67.5
78448;SHT31;67742;51.972;5.682;2023-03-31T15:59:22;14.8;67.7
78448;SHT31;67742;51.972;5.682;2023-03-31T16:01:54;14.8;67.9
78448;SHT31;67742;51.972;5.682;2023-03-31T16:04:30;14.8;67.9
78448;SHT31;67742;51.972;5.682;2023-03-31T16:07:03;14.8;68.2
78448;SHT31;67742;51.972;5.682;2023-03-31T16:09:43;14.8;67.9
78448;SHT31;67742;51.972;5.682;2023-03-31T16:12:19;14.8;67.8
78448;SHT31;67742;51.972;5.682;2023-03-31T16:14:55;14.9;67.4
78448;SHT31;67742;51.972;5.682;2023-03-31T16:17:30;14.8;66.8
78448;SHT31;67742;51.972;5.682;2023-03-31T16:20:04;14.8;66.6
78448;SHT31;67742;51.972;5.682;2023-03-31T16:22:42;14.8;66.7
78448;SHT31;67742;51.972;5.682;2023-03-31T16:25:15;14.8;67.1
78448;SHT31;67742;51.972;5.682;2023-03-31T16:27:48;14.7;66.7
78448;SHT31;67742;51.972;5.682;2023-03-31T16:30:21;14.7;66.9
78448;SHT31;67742;51.972;5.682;2023-03-31T16:33:00;14.7;66.9
78448;SHT31;67742;51.972;5.682;2023-03-31T16:35:36;14.7;67.0
78448;SHT31;67742;51.972;5.682;2023-03-31T16:38:08;14.6;67.3
78448;SHT31;67742;51.972;5.682;2023-03-31T16:40:40;14.6;67.3
78448;SHT31;67742;51.972;5.682;2023-03-31T16:43:13;14.6;67.4
78448;SHT31;67742;51.972;5.682;2023-03-31T16:45:46;14.6;67.2
78448;SHT31;67742;51.972;5.682;2023-03-31T16:48:18;14.6;67.4
78448;SHT31;67742;51.972;5.682;2023-03-31T16:50:51;14.6;67.4
78448;SHT31;67742;51.972;5.682;2023-03-31T16:53:22;14.5;67.3
78448;SHT31;67742;51.972;5.682;2023-03-31T16:55:54;14.5;67.2
78448;SHT31;67742;51.972;5.682;2023-03-31T16:58:25;14.5;67.6
78448;SHT31;67742;51.972;5.682;2023-03-31T17:00:55;14.5;67.3
78448;SHT31;67742;51.972;5.682;2023-03-31T17:03:26;14.5;67.8
78448;SHT31;67742;51.972;5.682;2023-03-31T17:05:56;14.5;67.7
78448;SHT31;67742;51.972;5.682;2023-03-31T17:08:26;14.4;68.0